Time;durP1;ratioP1;P1;durP2;ratioP2;P2;SDS_P1;SDS_P2;PMS_P1;PMS_P2;Temp;Humidity;BMP_temperature;BMP_pressure;BME280_temperature;BME280_humidity;BME280_pressure;Samples;Min_cycle;Max_cycle;Signal;HPM_P1;HPM_P2
2024/03/11 00:02:07;;;;;;;36.63;17.07;;;;;;;;;;7347993;19;20407;-62
2024/03/11 00:04:38;;;;;;;40.27;16.53;;;;;;;;;;7327434;19;20472;-61
2024/03/11 00:07:08;;;;;;;37.70;15.40;;;;;;;;;;7350047;19;20425;-57
2024/03/11 00:09:44;;;;;;;39.37;15.97;;;;;;;;;;7325554;19;20474;-57
2024/03/11 00:12:17;;;;;;;35.83;14.87;;;;;;;;;;7346940;19;20402;-61
2024/03/11 00:14:47;;;;;;;36.00;15.13;;;;;;;;;;7327552;19;20411;-58
2024/03/11 00:17:20;;;;;;;39.87;16.53;;;;;;;;;;7326486;19;20433;-60
2024/03/11 00:19:49;;;;;;;37.30;15.93;;;;;;;;;;7347972;19;20795;-56
2024/03/11 00:22:19;;;;;;;36.67;15.13;;;;;;;;;;7323759;19;20403;-61
2024/03/11 00:24:48;;;;;;;39.77;16.87;;;;;;;;;;7348285;19;20809;-60
2024/03/11 00:27:17;;;;;;;33.70;15.67;;;;;;;;;;7327042;19;20431;-61
2024/03/11 00:29:47;;;;;;;43.70;17.70;;;;;;;;;;7347554;19;20478;-59
2024/03/11 00:32:24;;;;;;;41.87;16.03;;;;;;;;;;7323860;19;20430;-61
2024/03/11 00:34:53;;;;;;;39.13;15.30;;;;;;;;;;7348276;19;20431;-61
2024/03/11 00:37:23;;;;;;;45.97;17.53;;;;;;;;;;7325846;19;20511;-58
2024/03/11 00:39:53;;;;;;;38.77;16.17;;;;;;;;;;7347274;19;20780;-61
2024/03/11 00:42:22;;;;;;;38.27;16.23;;;;;;;;;;7322371;19;20403;-61
2024/03/11 00:44:51;;;;;;;42.90;17.03;;;;;;;;;;7347687;19;20452;-60
2024/03/11 00:47:23;;;;;;;38.63;17.60;;;;;;;;;;7325218;19;20435;-58
2024/03/11 00:49:53;;;;;;;31.63;14.93;;;;;;;;;;7347154;19;20410;-56
2024/03/11 00:52:23;;;;;;;43.50;16.20;;;;;;;;;;7323545;19;20427;-58
2024/03/11 00:54:52;;;;;;;32.63;13.67;;;;;;;;;;7346811;19;20989;-58
2024/03/11 00:57:21;;;;;;;42.70;16.87;;;;;;;;;;7325110;19;20463;-59
2024/03/11 00:59:51;;;;;;;38.13;15.93;;;;;;;;;;7347210;19;20403;-56
2024/03/11 01:02:24;;;;;;;41.20;15.77;;;;;;;;;;7322138;19;20822;-59
2024/03/11 01:04:57;;;;;;;40.33;17.03;;;;;;;;;;7346757;19;20430;-60
2024/03/11 01:07:27;;;;;;;40.53;14.43;;;;;;;;;;7324574;19;20443;-56
2024/03/11 01:10:12;;;;;;;37.03;15.27;;;;;;;;;;7344734;19;20577;-60
2024/03/11 01:12:41;;;;;;;41.77;15.20;;;;;;;;;;7326313;19;20419;-59
2024/03/11 01:15:12;;;;;;;34.50;14.37;;;;;;;;;;7346778;19;20423;-58
2024/03/11 01:17:42;;;;;;;37.47;15.60;;;;;;;;;;7325050;19;20391;-58
2024/03/11 01:20:15;;;;;;;38.83;16.10;;;;;;;;;;7344791;19;20427;-57
2024/03/11 01:22:44;;;;;;;39.03;16.03;;;;;;;;;;7326220;19;20966;-58
2024/03/11 01:25:14;;;;;;;33.97;14.40;;;;;;;;;;7340750;19;20427;-53
2024/03/11 01:27:45;;;;;;;41.13;16.37;;;;;;;;;;7346812;19;20400;-57
2024/03/11 01:30:14;;;;;;;33.47;14.63;;;;;;;;;;7334732;19;20407;-56
2024/03/11 01:32:45;;;;;;;42.80;15.43;;;;;;;;;;7347928;19;20539;-62
2024/03/11 01:35:17;;;;;;;32.10;13.70;;;;;;;;;;7334082;19;20439;-59
2024/03/11 01:37:47;;;;;;;33.83;13.60;;;;;;;;;;7345646;19;20567;-59
2024/03/11 01:40:16;;;;;;;33.97;14.63;;;;;;;;;;7321252;19;20409;-61
2024/03/11 01:42:46;;;;;;;38.10;14.10;;;;;;;;;;7346178;19;20454;-58
2024/03/11 01:45:16;;;;;;;36.90;15.10;;;;;;;;;;7325134;19;20873;-58
2024/03/11 01:47:47;;;;;;;40.83;16.27;;;;;;;;;;7346496;19;20456;-58
2024/03/11 01:50:19;;;;;;;36.60;14.50;;;;;;;;;;7320882;19;20415;-62
2024/03/11 01:52:48;;;;;;;36.07;15.03;;;;;;;;;;7345694;19;20455;-59
2024/03/11 01:55:19;;;;;;;25.67;12.73;;;;;;;;;;7322714;19;20456;-60
2024/03/11 01:57:50;;;;;;;30.83;13.57;;;;;;;;;;7345815;19;20526;-54
2024/03/11 02:00:21;;;;;;;33.63;12.40;;;;;;;;;;7320376;19;20411;-59
2024/03/11 02:02:53;;;;;;;33.20;13.77;;;;;;;;;;7345510;19;20407;-60
2024/03/11 02:05:28;;;;;;;31.13;14.00;;;;;;;;;;7322868;19;20419;-58
2024/03/11 02:07:59;;;;;;;30.10;14.20;;;;;;;;;;7344337;19;20431;-59
2024/03/11 02:10:29;;;;;;;28.47;13.80;;;;;;;;;;7320943;19;20431;-58
2024/03/11 02:12:59;;;;;;;44.80;14.93;;;;;;;;;;7344763;19;20423;-59
2024/03/11 02:15:30;;;;;;;37.17;13.37;;;;;;;;;;7322504;19;20427;-59
2024/03/11 02:18:00;;;;;;;35.37;14.73;;;;;;;;;;7344567;19;20443;-60
2024/03/11 02:20:32;;;;;;;36.80;14.70;;;;;;;;;;7320488;19;20431;-60
2024/03/11 02:23:02;;;;;;;33.70;14.07;;;;;;;;;;7344929;19;20456;-59
2024/03/11 02:25:34;;;;;;;32.53;13.80;;;;;;;;;;7322249;19;20999;-59
2024/03/11 02:28:16;;;;;;;31.67;14.87;;;;;;;;;;7344459;19;21002;-58
2024/03/11 02:30:45;;;;;;;34.63;14.00;;;;;;;;;;7317530;19;20411;-58
2024/03/11 02:33:15;;;;;;;32.63;15.03;;;;;;;;;;7333230;19;20641;-58
2024/03/11 02:35:44;;;;;;;34.33;14.90;;;;;;;;;;7342209;19;20415;-58
2024/03/11 02:38:13;;;;;;;43.90;14.57;;;;;;;;;;7340282;19;20439;-60
2024/03/11 02:40:47;;;;;;;34.23;14.47;;;;;;;;;;7322237;19;20426;-57
2024/03/11 02:43:17;;;;;;;31.80;15.60;;;;;;;;;;7319397;19;20423;-59
2024/03/11 02:45:46;;;;;;;33.87;13.03;;;;;;;;;;7343284;19;20395;-59
2024/03/11 02:48:16;;;;;;;31.50;13.03;;;;;;;;;;7320875;19;20595;-59
2024/03/11 02:50:45;;;;;;;30.77;12.90;;;;;;;;;;7342667;19;20435;-60
2024/03/11 02:53:15;;;;;;;29.93;13.20;;;;;;;;;;7334055;19;20419;-58
2024/03/11 02:55:48;;;;;;;37.43;14.20;;;;;;;;;;7342790;19;20450;-59
2024/03/11 02:58:18;;;;;;;35.50;13.70;;;;;;;;;;7318938;19;20443;-58
2024/03/11 03:00:48;;;;;;;33.10;14.10;;;;;;;;;;7342065;19;20439;-60
2024/03/11 03:03:17;;;;;;;31.87;12.73;;;;;;;;;;7320897;19;20443;-60
2024/03/11 03:05:46;;;;;;;34.03;14.30;;;;;;;;;;7342772;19;20420;-59
2024/03/11 03:08:16;;;;;;;41.23;13.87;;;;;;;;;;7318811;19;20445;-57
2024/03/11 03:10:48;;;;;;;36.40;14.73;;;;;;;;;;7341938;19;20427;-56
2024/03/11 03:13:18;;;;;;;33.53;14.27;;;;;;;;;;7320150;19;20530;-59
2024/03/11 03:15:47;;;;;;;32.67;13.90;;;;;;;;;;7342701;19;20749;-58
2024/03/11 03:18:16;;;;;;;36.77;14.73;;;;;;;;;;7318301;19;20439;-59
2024/03/11 03:20:46;;;;;;;33.43;13.43;;;;;;;;;;7342271;19;20419;-59
2024/03/11 03:23:17;;;;;;;34.53;13.97;;;;;;;;;;7325872;19;20422;-58
2024/03/11 03:25:49;;;;;;;38.90;14.47;;;;;;;;;;7342142;19;20931;-56
2024/03/11 03:28:18;;;;;;;32.77;14.07;;;;;;;;;;7318644;19;20445;-57
2024/03/11 03:30:48;;;;;;;31.20;13.43;;;;;;;;;;7341708;19;20852;-57
2024/03/11 03:33:18;;;;;;;29.30;14.10;;;;;;;;;;7319293;19;20419;-59
2024/03/11 03:35:48;;;;;;;32.20;14.13;;;;;;;;;;7341998;19;20407;-59
2024/03/11 03:38:18;;;;;;;37.73;15.10;;;;;;;;;;7318212;19;20478;-59
2024/03/11 03:40:50;;;;;;;41.00;14.60;;;;;;;;;;7341264;19;21150;-58
2024/03/11 03:43:20;;;;;;;34.03;13.97;;;;;;;;;;7318924;19;20522;-58
2024/03/11 03:45:49;;;;;;;33.57;13.90;;;;;;;;;;7342371;19;20792;-59
2024/03/11 03:48:19;;;;;;;36.10;13.67;;;;;;;;;;7318559;19;20439;-57
2024/03/11 03:50:48;;;;;;;31.63;13.37;;;;;;;;;;7348106;19;20423;-58
2024/03/11 03:53:18;;;;;;;35.30;14.00;;;;;;;;;;7326296;19;20423;-58
2024/03/11 03:55:49;;;;;;;32.63;15.90;;;;;;;;;;7348667;19;20395;-57
2024/03/11 03:58:21;;;;;;;35.73;16.33;;;;;;;;;;7323010;19;21085;-57
2024/03/11 04:00:51;;;;;;;42.93;15.53;;;;;;;;;;7347324;19;20498;-58
2024/03/11 04:03:21;;;;;;;35.20;14.33;;;;;;;;;;7326108;19;20423;-60
2024/03/11 04:05:51;;;;;;;30.83;14.67;;;;;;;;;;7348410;19;21045;-58
2024/03/11 04:08:20;;;;;;;39.50;14.53;;;;;;;;;;7324169;19;20466;-61
2024/03/11 04:10:50;;;;;;;31.87;14.10;;;;;;;;;;7347280;19;20434;-58
2024/03/11 04:13:22;;;;;;;37.37;15.47;;;;;;;;;;7325513;19;20419;-58
2024/03/11 04:15:52;;;;;;;39.37;15.50;;;;;;;;;;7348528;19;20470;-59
2024/03/11 04:18:24;;;;;;;29.37;14.03;;;;;;;;;;7322985;19;20441;-60
2024/03/11 04:20:55;;;;;;;34.93;15.00;;;;;;;;;;7346494;19;20426;-57
2024/03/11 04:23:26;;;;;;;39.90;15.20;;;;;;;;;;7325413;19;20982;-57
2024/03/11 04:25:56;;;;;;;32.50;14.47;;;;;;;;;;7347584;19;20407;-60
2024/03/11 04:28:28;;;;;;;33.83;15.07;;;;;;;;;;7324224;19;20439;-58
2024/03/11 04:30:58;;;;;;;30.67;15.20;;;;;;;;;;7347342;19;20753;-58
2024/03/11 04:33:29;;;;;;;36.50;14.20;;;;;;;;;;7325750;19;20809;-58
2024/03/11 04:35:58;;;;;;;31.07;14.07;;;;;;;;;;7348864;19;20422;-58
2024/03/11 04:38:29;;;;;;;34.80;15.53;;;;;;;;;;7323616;19;20447;-58
2024/03/11 04:40:58;;;;;;;37.67;15.17;;;;;;;;;;7346477;19;20840;-56
2024/03/11 04:43:30;;;;;;;34.37;14.10;;;;;;;;;;7325881;19;20420;-58
2024/03/11 04:46:01;;;;;;;30.20;14.97;;;;;;;;;;7346668;19;20399;-59
2024/03/11 04:48:30;;;;;;;34.87;13.33;;;;;;;;;;7324108;19;20447;-59
2024/03/11 04:51:02;;;;;;;33.13;13.37;;;;;;;;;;7346395;19;20411;-60
2024/03/11 04:53:32;;;;;;;33.77;15.60;;;;;;;;;;7327094;19;20500;-56
2024/03/11 04:56:03;;;;;;;32.33;13.50;;;;;;;;;;7346749;19;20435;-60
2024/03/11 04:58:37;;;;;;;35.67;14.30;;;;;;;;;;7323187;19;20557;-58
2024/03/11 05:01:08;;;;;;;35.43;13.57;;;;;;;;;;7344352;19;20438;-61
2024/03/11 05:03:37;;;;;;;41.73;16.80;;;;;;;;;;7326506;19;20487;-59
2024/03/11 05:06:07;;;;;;;32.77;14.73;;;;;;;;;;7346721;19;20445;-60
2024/03/11 05:08:36;;;;;;;40.63;15.37;;;;;;;;;;7324779;19;20460;-57
2024/03/11 05:11:06;;;;;;;35.27;16.07;;;;;;;;;;7345733;19;20801;-57
2024/03/11 05:13:38;;;;;;;42.70;18.13;;;;;;;;;;7327040;19;20805;-58
2024/03/11 05:16:09;;;;;;;33.03;15.10;;;;;;;;;;7346336;19;20483;-60
2024/03/11 05:18:38;;;;;;;45.40;18.80;;;;;;;;;;7324629;19;20904;-58
2024/03/11 05:21:07;;;;;;;39.63;16.63;;;;;;;;;;7346142;19;20431;-59
2024/03/11 05:23:37;;;;;;;34.87;15.60;;;;;;;;;;7326092;19;21158;-61
2024/03/11 05:26:06;;;;;;;30.43;13.83;;;;;;;;;;7346911;19;20773;-60
2024/03/11 05:28:38;;;;;;;38.30;14.03;;;;;;;;;;7323226;19;20443;-57
2024/03/11 05:31:10;;;;;;;44.57;16.90;;;;;;;;;;7345115;19;20419;-58
2024/03/11 05:33:40;;;;;;;35.60;15.43;;;;;;;;;;7325346;19;20433;-57
2024/03/11 05:36:09;;;;;;;32.87;14.10;;;;;;;;;;7346338;19;20411;-59
2024/03/11 05:38:39;;;;;;;33.77;15.00;;;;;;;;;;7323645;19;20435;-57
2024/03/11 05:41:09;;;;;;;38.20;15.07;;;;;;;;;;7345167;19;20451;-57
2024/03/11 05:43:42;;;;;;;28.80;14.17;;;;;;;;;;7326607;19;20403;-58
2024/03/11 05:46:12;;;;;;;33.80;14.67;;;;;;;;;;7345485;19;20433;-60
2024/03/11 05:48:42;;;;;;;32.63;14.40;;;;;;;;;;7325146;19;20439;-60
2024/03/11 05:51:11;;;;;;;35.07;14.87;;;;;;;;;;7345263;19;20447;-59
2024/03/11 05:53:41;;;;;;;33.80;13.87;;;;;;;;;;7325407;19;20399;-59
2024/03/11 05:56:10;;;;;;;29.73;13.57;;;;;;;;;;7345535;19;20926;-58
2024/03/11 05:58:43;;;;;;;31.70;13.60;;;;;;;;;;7324909;19;20423;-59
2024/03/11 06:01:12;;;;;;;31.90;13.77;;;;;;;;;;7345165;19;21163;-58
2024/03/11 06:03:42;;;;;;;33.27;14.17;;;;;;;;;;7324743;19;20729;-57
2024/03/11 06:06:11;;;;;;;29.20;14.20;;;;;;;;;;7346060;19;20403;-57
2024/03/11 06:08:41;;;;;;;31.83;15.47;;;;;;;;;;7324343;19;20430;-57
2024/03/11 06:11:11;;;;;;;32.87;15.27;;;;;;;;;;7344255;19;20427;-57
2024/03/11 06:13:43;;;;;;;34.33;14.20;;;;;;;;;;7325598;19;20819;-59
2024/03/11 06:16:12;;;;;;;30.40;14.33;;;;;;;;;;7344760;19;20411;-60
2024/03/11 06:18:42;;;;;;;43.10;17.70;;;;;;;;;;7323238;19;20515;-56
2024/03/11 06:21:11;;;;;;;37.07;16.13;;;;;;;;;;7343695;19;20490;-56
2024/03/11 06:23:41;;;;;;;31.80;13.50;;;;;;;;;;7325037;19;20478;-58
2024/03/11 06:26:11;;;;;;;29.63;13.53;;;;;;;;;;7344603;19;21274;-57
2024/03/11 06:28:40;;;;;;;32.87;13.70;;;;;;;;;;7323192;19;20840;-57
2024/03/11 06:31:13;;;;;;;35.47;16.00;;;;;;;;;;7342949;19;20486;-55
2024/03/11 06:33:43;;;;;;;38.93;15.90;;;;;;;;;;7324232;19;20395;-59
2024/03/11 06:36:16;;;;;;;39.17;15.13;;;;;;;;;;7343824;19;20515;-61
2024/03/11 06:38:48;;;;;;;35.50;14.77;;;;;;;;;;7322547;19;21078;-53
2024/03/11 06:41:17;;;;;;;37.13;16.93;;;;;;;;;;7319263;19;20431;-57
2024/03/11 06:43:47;;;;;;;49.43;23.53;;;;;;;;;;7344950;19;20428;-57
2024/03/11 06:46:19;;;;;;;35.53;15.70;;;;;;;;;;7321771;19;20433;-59
2024/03/11 06:48:49;;;;;;;63.40;25.63;;;;;;;;;;7345085;19;20959;-57
2024/03/11 06:51:19;;;;;;;52.37;23.33;;;;;;;;;;7321424;19;20506;-56
2024/03/11 06:53:48;;;;;;;66.37;28.20;;;;;;;;;;7344756;19;20779;-56
2024/03/11 06:56:18;;;;;;;32.03;17.10;;;;;;;;;;7321162;19;20486;-58
2024/03/11 06:58:48;;;;;;;46.40;21.27;;;;;;;;;;7344943;19;20426;-59
2024/03/11 07:01:20;;;;;;;34.33;16.80;;;;;;;;;;7321948;19;20435;-59
2024/03/11 07:03:49;;;;;;;28.90;14.67;;;;;;;;;;7343586;19;20399;-57
2024/03/11 07:06:19;;;;;;;32.43;14.43;;;;;;;;;;7322236;19;20420;-54
2024/03/11 07:08:50;;;;;;;36.53;14.77;;;;;;;;;;7345356;19;20428;-55
2024/03/11 07:11:19;;;;;;;35.87;17.67;;;;;;;;;;7321947;19;20512;-59
2024/03/11 07:13:51;;;;;;;35.77;15.27;;;;;;;;;;7344725;19;20416;-56
2024/03/11 07:16:23;;;;;;;53.93;25.57;;;;;;;;;;7321316;19;20410;-57
2024/03/11 07:18:54;;;;;;;59.93;27.07;;;;;;;;;;7343872;19;20520;-57
2024/03/11 07:21:27;;;;;;;43.97;22.07;;;;;;;;;;7321640;19;20427;-58
2024/03/11 07:23:57;;;;;;;29.67;14.27;;;;;;;;;;7345252;19;20410;-57
2024/03/11 07:26:27;;;;;;;26.60;13.90;;;;;;;;;;7325913;19;20420;-57
2024/03/11 07:28:56;;;;;;;27.07;12.50;;;;;;;;;;7347911;19;20446;-56
2024/03/11 07:31:28;;;;;;;38.80;16.10;;;;;;;;;;7327628;19;20439;-53
2024/03/11 07:33:57;;;;;;;30.10;13.50;;;;;;;;;;7348453;19;20408;-55
2024/03/11 07:36:27;;;;;;;33.47;13.20;;;;;;;;;;7327260;19;20398;-57
2024/03/11 07:38:56;;;;;;;29.53;12.50;;;;;;;;;;7346350;19;20826;-57
2024/03/11 07:41:26;;;;;;;25.80;12.63;;;;;;;;;;7325017;19;20403;-58
2024/03/11 07:43:55;;;;;;;34.90;14.43;;;;;;;;;;7349132;19;20413;-55
2024/03/11 07:46:28;;;;;;;31.07;14.03;;;;;;;;;;7326704;19;20399;-55
2024/03/11 07:48:59;;;;;;;31.17;12.73;;;;;;;;;;7349443;19;20498;-58
2024/03/11 07:51:29;;;;;;;27.53;12.97;;;;;;;;;;7326654;19;20526;-56
2024/03/11 07:53:59;;;;;;;33.50;14.70;;;;;;;;;;7350161;19;20844;-56
2024/03/11 07:56:29;;;;;;;32.60;13.20;;;;;;;;;;7327331;19;20534;-56
2024/03/11 07:58:58;;;;;;;27.40;12.50;;;;;;;;;;7347889;19;20407;-55
2024/03/11 08:01:31;;;;;;;25.27;13.13;;;;;;;;;;7326188;19;20498;-55
2024/03/11 08:04:01;;;;;;;24.63;12.27;;;;;;;;;;7345841;19;20399;-55
2024/03/11 08:06:30;;;;;;;32.03;15.00;;;;;;;;;;7323049;19;20430;-58
2024/03/11 08:09:00;;;;;;;32.17;12.63;;;;;;;;;;7346288;19;20411;-58
2024/03/11 08:11:30;;;;;;;31.50;13.20;;;;;;;;;;7325658;19;20423;-56
2024/03/11 08:14:02;;;;;;;33.43;14.47;;;;;;;;;;7348462;19;20418;-57
2024/03/11 08:16:34;;;;;;;32.60;13.67;;;;;;;;;;7327272;19;20528;-56
2024/03/11 08:19:05;;;;;;;26.13;12.10;;;;;;;;;;7346918;19;20424;-56
2024/03/11 08:21:35;;;;;;;27.00;13.30;;;;;;;;;;7326408;19;20385;-57
2024/03/11 08:24:06;;;;;;;42.87;14.57;;;;;;;;;;7348254;19;20411;-55
2024/03/11 08:26:35;;;;;;;29.30;13.10;;;;;;;;;;7328014;19;21657;-55
2024/03/11 08:29:05;;;;;;;32.53;12.40;;;;;;;;;;7347771;19;20445;-56
2024/03/11 08:31:37;;;;;;;29.47;12.50;;;;;;;;;;7326876;19;26563;-57
2024/03/11 08:34:06;;;;;;;26.27;12.67;;;;;;;;;;7349529;19;20486;-58
2024/03/11 08:36:36;;;;;;;27.80;12.60;;;;;;;;;;7322445;19;20377;-52
2024/03/11 08:39:07;;;;;;;28.97;12.30;;;;;;;;;;7346642;19;20427;-56
2024/03/11 08:41:37;;;;;;;23.60;12.57;;;;;;;;;;7322958;19;20825;-58
2024/03/11 08:44:07;;;;;;;29.43;13.03;;;;;;;;;;7348608;19;20411;-56
2024/03/11 08:46:39;;;;;;;33.67;14.43;;;;;;;;;;7327114;19;20466;-57
2024/03/11 08:49:11;;;;;;;24.60;12.40;;;;;;;;;;7346760;19;20760;-54
2024/03/11 08:51:41;;;;;;;28.40;13.20;;;;;;;;;;7326012;19;20419;-59
2024/03/11 08:54:10;;;;;;;24.57;11.77;;;;;;;;;;7347107;19;20471;-59
2024/03/11 08:56:40;;;;;;;26.97;11.70;;;;;;;;;;7326521;19;20423;-58
2024/03/11 08:59:13;;;;;;;28.37;12.17;;;;;;;;;;7346616;19;20407;-61
2024/03/11 09:01:45;;;;;;;26.83;12.83;;;;;;;;;;7325703;19;20454;-59
2024/03/11 09:04:15;;;;;;;28.03;12.77;;;;;;;;;;7345337;19;20399;-61
2024/03/11 09:06:44;;;;;;;27.53;12.90;;;;;;;;;;7328382;19;20424;-59
2024/03/11 09:09:15;;;;;;;30.30;13.13;;;;;;;;;;7346268;19;20417;-60
2024/03/11 09:11:44;;;;;;;30.37;12.70;;;;;;;;;;7327306;19;20459;-58
2024/03/11 09:14:14;;;;;;;26.97;11.53;;;;;;;;;;7346531;19;20975;-61
2024/03/11 09:16:46;;;;;;;25.60;11.50;;;;;;;;;;7327400;19;20477;-57
2024/03/11 09:19:16;;;;;;;30.93;13.10;;;;;;;;;;7340359;19;20514;-58
2024/03/11 09:21:47;;;;;;;25.43;11.53;;;;;;;;;;7346136;19;20405;-59
2024/03/11 09:24:20;;;;;;;29.20;12.43;;;;;;;;;;7324334;19;20411;-58
2024/03/11 09:26:50;;;;;;;27.73;12.60;;;;;;;;;;7347194;19;20824;-58
2024/03/11 09:29:19;;;;;;;33.17;13.90;;;;;;;;;;7323060;19;20506;-57
2024/03/11 09:31:52;;;;;;;29.10;12.50;;;;;;;;;;7346397;19;21033;-58
2024/03/11 09:34:21;;;;;;;25.10;12.13;;;;;;;;;;7323822;19;20555;-56
2024/03/11 09:36:51;;;;;;;27.07;12.23;;;;;;;;;;7346710;19;20424;-56
2024/03/11 09:39:21;;;;;;;28.57;14.20;;;;;;;;;;7322874;19;20414;-60
2024/03/11 09:41:50;;;;;;;31.13;11.97;;;;;;;;;;7343771;19;20751;-58
2024/03/11 09:44:20;;;;;;;53.67;22.83;;;;;;;;;;7323802;19;20438;-61
2024/03/11 09:46:55;;;;;;;46.23;19.27;;;;;;;;;;7345242;19;20422;-60
2024/03/11 09:49:25;;;;;;;35.07;16.30;;;;;;;;;;7322503;19;20409;-58
2024/03/11 09:51:55;;;;;;;26.20;13.30;;;;;;;;;;7347107;19;20415;-58
2024/03/11 09:54:25;;;;;;;30.77;14.17;;;;;;;;;;7323258;19;20845;-57
2024/03/11 09:56:55;;;;;;;28.97;13.73;;;;;;;;;;7345894;19;20479;-58
2024/03/11 09:59:25;;;;;;;25.20;12.17;;;;;;;;;;7322766;19;20978;-59
2024/03/11 10:01:59;;;;;;;27.20;13.53;;;;;;;;;;7346819;19;20459;-57
2024/03/11 10:04:29;;;;;;;47.80;15.90;;;;;;;;;;7321387;19;20434;-56
2024/03/11 10:06:59;;;;;;;29.97;13.30;;;;;;;;;;7348508;19;20419;-58
2024/03/11 10:09:31;;;;;;;29.07;13.17;;;;;;;;;;7321402;19;21033;-60
2024/03/11 10:12:07;;;;;;;33.03;13.70;;;;;;;;;;7345527;19;20410;-58
2024/03/11 10:14:39;;;;;;;32.83;16.20;;;;;;;;;;7323813;19;21262;-63
2024/03/11 10:17:23;;;;;;;25.97;13.57;;;;;;;;;;7345732;19;20951;-65
2024/03/11 10:19:54;;;;;;;25.87;12.40;;;;;;;;;;7322092;19;20431;-59
2024/03/11 10:22:26;;;;;;;26.90;13.27;;;;;;;;;;7319374;19;20425;-56
2024/03/11 10:24:56;;;;;;;29.00;12.70;;;;;;;;;;7345430;19;20403;-57
2024/03/11 10:27:28;;;;;;;30.80;11.60;;;;;;;;;;7323670;19;20962;-56
2024/03/11 10:29:58;;;;;;;40.27;14.00;;;;;;;;;;7343951;19;20439;-60
2024/03/11 10:32:38;;;;;;;27.50;13.50;;;;;;;;;;7321918;19;20403;-62
2024/03/11 10:35:10;;;;;;;23.30;12.87;;;;;;;;;;7343982;19;20401;-59
2024/03/11 10:37:42;;;;;;;27.37;13.30;;;;;;;;;;7322777;19;20429;-60
2024/03/11 10:40:17;;;;;;;25.80;14.40;;;;;;;;;;7343385;19;20406;-56
2024/03/11 10:42:53;;;;;;;28.57;13.33;;;;;;;;;;7321530;19;20466;-56
2024/03/11 10:45:32;;;;;;;26.00;13.03;;;;;;;;;;7322002;19;20805;-60
2024/03/11 10:48:09;;;;;;;33.00;14.07;;;;;;;;;;7343843;19;20430;-56
2024/03/11 10:50:39;;;;;;;26.87;13.90;;;;;;;;;;7321990;19;21512;-54
2024/03/11 10:53:09;;;;;;;33.53;14.90;;;;;;;;;;7345040;19;20936;-60
2024/03/11 10:55:42;;;;;;;26.67;13.20;;;;;;;;;;7322148;19;20391;-58
2024/03/11 10:58:13;;;;;;;30.00;13.47;;;;;;;;;;7340724;19;20455;-57
2024/03/11 11:00:44;;;;;;;28.33;13.23;;;;;;;;;;7321572;19;20760;-54
2024/03/11 11:03:16;;;;;;;29.50;13.20;;;;;;;;;;7343118;19;20407;-59
2024/03/11 11:05:50;;;;;;;34.70;14.70;;;;;;;;;;7321971;19;20397;-58
2024/03/11 11:08:22;;;;;;;52.67;20.70;;;;;;;;;;7320535;19;20529;-60
2024/03/11 11:10:52;;;;;;;33.77;13.67;;;;;;;;;;7343072;19;20439;-54
2024/03/11 11:13:24;;;;;;;27.30;13.60;;;;;;;;;;7320057;19;20947;-53
2024/03/11 11:15:54;;;;;;;30.60;15.80;;;;;;;;;;7343803;19;20437;-55
2024/03/11 11:18:28;;;;;;;36.80;15.57;;;;;;;;;;7319882;19;20447;-57
2024/03/11 11:20:58;;;;;;;27.50;13.23;;;;;;;;;;7343603;19;20471;-61
2024/03/11 11:23:28;;;;;;;27.97;12.70;;;;;;;;;;7319880;19;20945;-60
2024/03/11 11:25:58;;;;;;;27.50;13.97;;;;;;;;;;7341352;19;20403;-58
2024/03/11 11:28:28;;;;;;;30.00;14.03;;;;;;;;;;7320174;19;20465;-60
2024/03/11 11:31:11;;;;;;;28.30;13.80;;;;;;;;;;7340648;19;20395;-60
2024/03/11 11:33:53;;;;;;;30.47;14.37;;;;;;;;;;7320704;19;20414;-58
2024/03/11 11:36:39;;;;;;;28.00;14.23;;;;;;;;;;7318636;19;20406;-57
2024/03/11 11:39:27;;;;;;;29.23;13.70;;;;;;;;;;7341175;19;20412;-59
2024/03/11 11:41:57;;;;;;;38.23;13.87;;;;;;;;;;7319917;19;20939;-58
2024/03/11 11:44:44;;;;;;;38.13;16.60;;;;;;;;;;7317265;19;20826;-58
2024/03/11 11:47:15;;;;;;;33.90;15.00;;;;;;;;;;7341416;19;20466;-61
2024/03/11 11:49:48;;;;;;;36.37;16.13;;;;;;;;;;7319146;19;20415;-59
2024/03/11 11:52:18;;;;;;;29.73;15.30;;;;;;;;;;7317238;19;20457;-59
2024/03/11 11:54:50;;;;;;;32.57;14.73;;;;;;;;;;7342086;19;20411;-59
2024/03/11 11:57:21;;;;;;;36.20;16.57;;;;;;;;;;7315442;19;20491;-60
2024/03/11 11:59:58;;;;;;;34.13;16.70;;;;;;;;;;7340421;19;20958;-59
2024/03/11 12:02:28;;;;;;;30.63;14.70;;;;;;;;;;7318025;19;20955;-58
2024/03/11 12:05:00;;;;;;;27.70;14.23;;;;;;;;;;7337928;19;20435;-60
2024/03/11 12:07:38;;;;;;;27.63;13.50;;;;;;;;;;7320210;19;20412;-60
2024/03/11 12:10:10;;;;;;;30.83;15.53;;;;;;;;;;7343899;19;20931;-59
2024/03/11 12:12:43;;;;;;;40.13;16.63;;;;;;;;;;7329363;19;20470;-60
2024/03/11 12:15:18;;;;;;;36.33;16.70;;;;;;;;;;7348198;19;20778;-61
2024/03/11 12:17:49;;;;;;;38.13;18.17;;;;;;;;;;7326260;19;20474;-58
2024/03/11 12:20:25;;;;;;;31.63;14.90;;;;;;;;;;7324743;19;20870;-56
2024/03/11 12:22:55;;;;;;;38.43;15.30;;;;;;;;;;7347898;19;20411;-58
2024/03/11 12:25:25;;;;;;;35.60;15.90;;;;;;;;;;7325336;19;20529;-60
2024/03/11 12:27:56;;;;;;;30.77;13.97;;;;;;;;;;7348227;19;20866;-61
2024/03/11 12:30:36;;;;;;;36.70;14.87;;;;;;;;;;7325716;19;20435;-60
2024/03/11 12:33:07;;;;;;;33.23;14.97;;;;;;;;;;7347847;19;20411;-56
2024/03/11 12:35:43;;;;;;;37.90;16.37;;;;;;;;;;7326039;19;20405;-60
2024/03/11 12:38:14;;;;;;;29.43;15.20;;;;;;;;;;7347204;19;20459;-59
2024/03/11 12:40:46;;;;;;;45.13;15.30;;;;;;;;;;7326151;19;20387;-59
2024/03/11 12:43:19;;;;;;;29.63;14.33;;;;;;;;;;7322897;19;21251;-61
2024/03/11 12:45:54;;;;;;;29.50;15.00;;;;;;;;;;7347557;19;20397;-59
2024/03/11 12:48:27;;;;;;;31.83;15.60;;;;;;;;;;7324711;19;21024;-57
2024/03/11 12:51:02;;;;;;;35.93;16.33;;;;;;;;;;7346621;19;20424;-60
2024/03/11 12:53:33;;;;;;;38.57;17.30;;;;;;;;;;7326201;19;20780;-59
2024/03/11 12:56:03;;;;;;;39.20;17.50;;;;;;;;;;7348277;19;20407;-59
2024/03/11 12:58:36;;;;;;;34.20;15.20;;;;;;;;;;7324307;19;20842;-59
2024/03/11 13:01:09;;;;;;;37.13;16.30;;;;;;;;;;7346920;19;20805;-55
2024/03/11 13:03:41;;;;;;;36.07;16.40;;;;;;;;;;7325367;19;20506;-60
2024/03/11 13:06:18;;;;;;;41.83;16.83;;;;;;;;;;7347158;19;20540;-61
2024/03/11 13:08:49;;;;;;;42.97;17.67;;;;;;;;;;7325399;19;20767;-56
2024/03/11 13:11:19;;;;;;;53.33;16.87;;;;;;;;;;7323508;19;20395;-57
2024/03/11 13:13:51;;;;;;;38.10;17.30;;;;;;;;;;7347318;19;20395;-60
2024/03/11 13:16:22;;;;;;;40.97;17.20;;;;;;;;;;7323895;19;20435;-58
2024/03/11 13:18:52;;;;;;;37.70;18.23;;;;;;;;;;7345863;19;20407;-58
2024/03/11 13:21:29;;;;;;;34.10;17.40;;;;;;;;;;7323072;19;20473;-61
2024/03/11 13:23:59;;;;;;;39.90;15.37;;;;;;;;;;7345796;19;20433;-57
2024/03/11 13:26:28;;;;;;;38.43;17.17;;;;;;;;;;7324072;19;20396;-61
2024/03/11 13:28:59;;;;;;;40.57;17.20;;;;;;;;;;7345437;19;20407;-57
2024/03/11 13:31:29;;;;;;;37.97;17.23;;;;;;;;;;7323681;19;20467;-60
2024/03/11 13:34:02;;;;;;;38.83;16.37;;;;;;;;;;7344436;19;20910;-57
2024/03/11 13:36:34;;;;;;;37.00;17.53;;;;;;;;;;7324615;19;20432;-59
2024/03/11 13:39:15;;;;;;;46.37;20.03;;;;;;;;;;7345040;19;20640;-58
2024/03/11 13:41:46;;;;;;;53.10;23.53;;;;;;;;;;7322750;19;20421;-60
2024/03/11 13:44:20;;;;;;;126.00;54.67;;;;;;;;;;7334105;19;20410;-59
2024/03/11 13:46:49;;;;;;;95.23;44.73;;;;;;;;;;7346844;19;20389;-54
2024/03/11 13:49:21;;;;;;;79.00;36.93;;;;;;;;;;7320620;19;20472;-57
2024/03/11 13:51:54;;;;;;;51.83;19.73;;;;;;;;;;7346439;19;20531;-60
2024/03/11 13:54:23;;;;;;;53.90;26.43;;;;;;;;;;7322894;19;20493;-58
2024/03/11 13:56:54;;;;;;;44.87;20.97;;;;;;;;;;7344788;19;21061;-59
2024/03/11 13:59:24;;;;;;;59.43;22.97;;;;;;;;;;7322582;19;20495;-56
2024/03/11 14:01:54;;;;;;;40.57;19.93;;;;;;;;;;7343058;19;20414;-55
2024/03/11 14:04:24;;;;;;;41.90;18.47;;;;;;;;;;7322219;19;20483;-60
2024/03/11 14:06:56;;;;;;;48.63;18.03;;;;;;;;;;7345038;19;20419;-59
2024/03/11 14:09:26;;;;;;;36.20;16.60;;;;;;;;;;7321951;19;20403;-55
2024/03/11 14:11:55;;;;;;;35.80;15.97;;;;;;;;;;7345564;19;20983;-58
2024/03/11 14:14:25;;;;;;;41.33;16.50;;;;;;;;;;7323088;19;20407;-53
2024/03/11 14:16:55;;;;;;;35.07;16.20;;;;;;;;;;7345189;19;20411;-56
2024/03/11 14:19:27;;;;;;;36.17;17.23;;;;;;;;;;7320627;19;20412;-54
2024/03/11 14:21:59;;;;;;;47.63;17.73;;;;;;;;;;7344664;19;20413;-55
2024/03/11 14:24:29;;;;;;;36.20;17.37;;;;;;;;;;7321573;19;20476;-55
2024/03/11 14:26:58;;;;;;;45.37;18.17;;;;;;;;;;7344315;19;20796;-57
2024/03/11 14:29:27;;;;;;;36.60;19.00;;;;;;;;;;7319044;19;20403;-55
2024/03/11 14:31:57;;;;;;;31.53;16.87;;;;;;;;;;7341583;19;20420;-55
2024/03/11 14:34:27;;;;;;;41.90;18.10;;;;;;;;;;7321562;19;20479;-53
2024/03/11 14:36:59;;;;;;;43.67;19.23;;;;;;;;;;7343389;19;20433;-56
2024/03/11 14:39:32;;;;;;;33.17;16.50;;;;;;;;;;7320891;19;21016;-52